sensor_id;sensor_type;location;lat;lon;timestamp;pressure;altitude;pressure_sealevel;temperature
27986;BMP280;15453;53.692;10.168;2023-04-01T00:01:41;99194.75;;;15.19
27986;BMP280;15453;53.692;10.168;2023-04-01T00:04:06;99189.88;;;15.16
27986;BMP280;15453;53.692;10.168;2023-04-01T00:06:31;99193.41;;;15.16
27986;BMP280;15453;53.692;10.168;2023-04-01T00:08:57;99188.25;;;15.15
27986;BMP280;15453;53.692;10.168;2023-04-01T00:11:22;99189.03;;;15.15
27986;BMP280;15453;53.692;10.168;2023-04-01T00:13:48;99198.13;;;15.16
27986;BMP280;15453;53.692;10.168;2023-04-01T00:16:13;99188.72;;;15.17
27986;BMP280;15453;53.692;10.168;2023-04-01T00:18:39;99192.63;;;15.16
27986;BMP280;15453;53.692;10.168;2023-04-01T00:21:05;99195.69;;;15.14
27986;BMP280;15453;53.692;10.168;2023-04-01T00:23:30;99193.75;;;15.15
27986;BMP280;15453;53.692;10.168;2023-04-01T00:25:56;99191.00;;;15.15
27986;BMP280;15453;53.692;10.168;2023-04-01T00:28:23;99194.88;;;15.14
27986;BMP280;15453;53.692;10.168;2023-04-01T00:30:49;99193.25;;;15.13
27986;BMP280;15453;53.692;10.168;2023-04-01T00:33:15;99201.03;;;15.11
27986;BMP280;15453;53.692;10.168;2023-04-01T00:35:40;99193.88;;;15.10
27986;BMP280;15453;53.692;10.168;2023-04-01T00:38:06;99192.25;;;15.09
27986;BMP280;15453;53.692;10.168;2023-04-01T00:40:34;99194.53;;;15.07
27986;BMP280;15453;53.692;10.168;2023-04-01T00:43:00;99191.25;;;15.05
27986;BMP280;15453;53.692;10.168;2023-04-01T00:45:34;99203.09;;;15.05
27986;BMP280;15453;53.692;10.168;2023-04-01T00:48:10;99203.09;;;15.05
27986;BMP280;15453;53.692;10.168;2023-04-01T00:50:36;99200.97;;;15.02
27986;BMP280;15453;53.692;10.168;2023-04-01T00:53:02;99199.03;;;15.03
27986;BMP280;15453;53.692;10.168;2023-04-01T00:55:30;99199.03;;;15.03
27986;BMP280;15453;53.692;10.168;2023-04-01T00:57:58;99194.16;;;15.00
27986;BMP280;15453;53.692;10.168;2023-04-01T01:00:24;99200.78;;;14.99
27986;BMP280;15453;53.692;10.168;2023-04-01T01:02:51;99192.84;;;14.97
27986;BMP280;15453;53.692;10.168;2023-04-01T01:05:17;99205.78;;;14.97
27986;BMP280;15453;53.692;10.168;2023-04-01T01:08:02;99201.09;;;14.97
27986;BMP280;15453;53.692;10.168;2023-04-01T01:10:32;99197.66;;;14.92
27986;BMP280;15453;53.692;10.168;2023-04-01T01:13:10;99208.69;;;14.92
27986;BMP280;15453;53.692;10.168;2023-04-01T01:16:03;99206.25;;;14.90
27986;BMP280;15453;53.692;10.168;2023-04-01T01:18:38;99210.13;;;14.89
27986;BMP280;15453;53.692;10.168;2023-04-01T01:21:30;99197.19;;;14.90
27986;BMP280;15453;53.692;10.168;2023-04-01T01:26:59;99202.50;;;14.86
27986;BMP280;15453;53.692;10.168;2023-04-01T01:32:24;99209.13;;;14.85
27986;BMP280;15453;53.692;10.168;2023-04-01T01:38:02;99206.19;;;14.82
27986;BMP280;15453;53.692;10.168;2023-04-01T01:40:31;99205.91;;;14.83
27986;BMP280;15453;53.692;10.168;2023-04-01T01:42:59;99205.06;;;14.83
27986;BMP280;15453;53.692;10.168;2023-04-01T01:45:26;99203.44;;;14.82
27986;BMP280;15453;53.692;10.168;2023-04-01T01:47:53;99207.81;;;14.83
27986;BMP280;15453;53.692;10.168;2023-04-01T01:50:21;99214.47;;;14.82
27986;BMP280;15453;53.692;10.168;2023-04-01T01:52:46;99213.63;;;14.81
27986;BMP280;15453;53.692;10.168;2023-04-01T01:55:31;99211.72;;;14.82
27986;BMP280;15453;53.692;10.168;2023-04-01T01:58:04;99215.91;;;14.79
27986;BMP280;15453;53.692;10.168;2023-04-01T02:00:30;99214.78;;;14.80
27986;BMP280;15453;53.692;10.168;2023-04-01T02:02:57;99217.22;;;14.82
27986;BMP280;15453;53.692;10.168;2023-04-01T02:05:25;99219.16;;;14.81
27986;BMP280;15453;53.692;10.168;2023-04-01T02:08:13;99213.63;;;14.81
27986;BMP280;15453;53.692;10.168;2023-04-01T02:10:43;99226.94;;;14.79
27986;BMP280;15453;53.692;10.168;2023-04-01T02:13:18;99219.47;;;14.80
27986;BMP280;15453;53.692;10.168;2023-04-01T02:15:47;99225.81;;;14.80
27986;BMP280;15453;53.692;10.168;2023-04-01T02:18:14;99224.97;;;14.80
27986;BMP280;15453;53.692;10.168;2023-04-01T02:20:41;99216.72;;;14.80
27986;BMP280;15453;53.692;10.168;2023-04-01T02:23:09;99220.28;;;14.80
27986;BMP280;15453;53.692;10.168;2023-04-01T02:25:36;99223.84;;;14.81
27986;BMP280;15453;53.692;10.168;2023-04-01T02:28:04;99223.53;;;14.82
27986;BMP280;15453;53.692;10.168;2023-04-01T02:30:32;99225.19;;;14.83
27986;BMP280;15453;53.692;10.168;2023-04-01T02:32:58;99225.50;;;14.82
27986;BMP280;15453;53.692;10.168;2023-04-01T02:35:24;99222.44;;;14.83
27986;BMP280;15453;53.692;10.168;2023-04-01T02:37:52;99227.41;;;14.81
27986;BMP280;15453;53.692;10.168;2023-04-01T02:40:18;99228.25;;;14.82
27986;BMP280;15453;53.692;10.168;2023-04-01T02:42:44;99228.56;;;14.80
27986;BMP280;15453;53.692;10.168;2023-04-01T02:45:10;99227.41;;;14.81
27986;BMP280;15453;53.692;10.168;2023-04-01T02:47:36;99232.09;;;14.81
27986;BMP280;15453;53.692;10.168;2023-04-01T02:50:01;99233.75;;;14.82
27986;BMP280;15453;53.692;10.168;2023-04-01T02:52:28;99242.34;;;14.80
27986;BMP280;15453;53.692;10.168;2023-04-01T02:54:54;99248.03;;;14.84
27986;BMP280;15453;53.692;10.168;2023-04-01T02:57:20;99248.03;;;14.84
27986;BMP280;15453;53.692;10.168;2023-04-01T02:59:45;99245.09;;;14.80
27986;BMP280;15453;53.692;10.168;2023-04-01T03:02:11;99245.88;;;14.81
27986;BMP280;15453;53.692;10.168;2023-04-01T03:04:36;99250.59;;;14.80
27986;BMP280;15453;53.692;10.168;2023-04-01T03:07:01;99250.91;;;14.79
27986;BMP280;15453;53.692;10.168;2023-04-01T03:09:27;99247.03;;;14.80
27986;BMP280;15453;53.692;10.168;2023-04-01T03:11:53;99255.59;;;14.78
27986;BMP280;15453;53.692;10.168;2023-04-01T03:14:18;99261.41;;;14.77
27986;BMP280;15453;53.692;10.168;2023-04-01T03:16:44;99257.88;;;14.76
27986;BMP280;15453;53.692;10.168;2023-04-01T03:19:09;99257.88;;;14.76
27986;BMP280;15453;53.692;10.168;2023-04-01T03:21:34;99253.97;;;14.77
27986;BMP280;15453;53.692;10.168;2023-04-01T03:24:00;99267.75;;;14.77
27986;BMP280;15453;53.692;10.168;2023-04-01T03:26:25;99267.75;;;14.77
27986;BMP280;15453;53.692;10.168;2023-04-01T03:28:52;99264.00;;;14.73
27986;BMP280;15453;53.692;10.168;2023-04-01T03:31:18;99263.19;;;14.73
27986;BMP280;15453;53.692;10.168;2023-04-01T03:33:43;99261.53;;;14.72
27986;BMP280;15453;53.692;10.168;2023-04-01T03:36:09;99267.06;;;14.72
27986;BMP280;15453;53.692;10.168;2023-04-01T03:38:35;99256.84;;;14.72
27986;BMP280;15453;53.692;10.168;2023-04-01T03:41:00;99256.03;;;14.72
27986;BMP280;15453;53.692;10.168;2023-04-01T03:43:25;99271.47;;;14.73
27986;BMP280;15453;53.692;10.168;2023-04-01T03:45:52;99261.53;;;14.72
27986;BMP280;15453;53.692;10.168;2023-04-01T03:48:17;99269.00;;;14.71
27986;BMP280;15453;53.692;10.168;2023-04-01T03:50:43;99268.19;;;14.71
27986;BMP280;15453;53.692;10.168;2023-04-01T03:53:09;99268.19;;;14.71
27986;BMP280;15453;53.692;10.168;2023-04-01T03:55:36;99271.75;;;14.71
27986;BMP280;15453;53.692;10.168;2023-04-01T03:58:01;99272.56;;;14.72
27986;BMP280;15453;53.692;10.168;2023-04-01T04:00:28;99276.44;;;14.71
27986;BMP280;15453;53.692;10.168;2023-04-01T04:02:53;99277.28;;;14.71
27986;BMP280;15453;53.692;10.168;2023-04-01T04:05:20;99282.78;;;14.71
27986;BMP280;15453;53.692;10.168;2023-04-01T04:07:46;99285.53;;;14.71
27986;BMP280;15453;53.692;10.168;2023-04-01T04:10:11;99277.59;;;14.70
27986;BMP280;15453;53.692;10.168;2023-04-01T04:12:36;99279.50;;;14.69
27986;BMP280;15453;53.692;10.168;2023-04-01T04:15:02;99287.47;;;14.71
27986;BMP280;15453;53.692;10.168;2023-04-01T04:17:27;99288.91;;;14.68
27986;BMP280;15453;53.692;10.168;2023-04-01T04:19:52;99294.72;;;14.67
27986;BMP280;15453;53.692;10.168;2023-04-01T04:22:17;99300.34;;;14.62
27986;BMP280;15453;53.692;10.168;2023-04-01T04:24:43;99300.34;;;14.62
27986;BMP280;15453;53.692;10.168;2023-04-01T04:27:08;99299.97;;;14.55
27986;BMP280;15453;53.692;10.168;2023-04-01T04:29:33;99304.75;;;14.49
27986;BMP280;15453;53.692;10.168;2023-04-01T04:31:58;99313.97;;;14.45
27986;BMP280;15453;53.692;10.168;2023-04-01T04:34:24;99335.41;;;14.34
27986;BMP280;15453;53.692;10.168;2023-04-01T04:36:49;99332.25;;;14.27
27986;BMP280;15453;53.692;10.168;2023-04-01T04:39:15;99332.25;;;14.27
27986;BMP280;15453;53.692;10.168;2023-04-01T04:41:41;99333.75;;;14.20
27986;BMP280;15453;53.692;10.168;2023-04-01T04:44:07;99345.47;;;14.12
27986;BMP280;15453;53.692;10.168;2023-04-01T04:46:32;99365.03;;;13.97
27986;BMP280;15453;53.692;10.168;2023-04-01T04:48:57;99365.03;;;13.97
27986;BMP280;15453;53.692;10.168;2023-04-01T04:51:23;99356.44;;;13.85
27986;BMP280;15453;53.692;10.168;2023-04-01T04:53:48;99351.97;;;13.75
27986;BMP280;15453;53.692;10.168;2023-04-01T04:56:18;99359.81;;;13.68
27986;BMP280;15453;53.692;10.168;2023-04-01T04:58:44;99358.25;;;13.62
27986;BMP280;15453;53.692;10.168;2023-04-01T05:01:13;99377.59;;;13.57
27986;BMP280;15453;53.692;10.168;2023-04-01T05:03:39;99374.09;;;13.52
27986;BMP280;15453;53.692;10.168;2023-04-01T05:06:05;99368.41;;;13.48
27986;BMP280;15453;53.692;10.168;2023-04-01T05:08:30;99370.13;;;13.44
27986;BMP280;15453;53.692;10.168;2023-04-01T05:10:57;99380.69;;;13.37
27986;BMP280;15453;53.692;10.168;2023-04-01T05:13:22;99384.06;;;13.34
27986;BMP280;15453;53.692;10.168;2023-04-01T05:15:48;99389.09;;;13.27
27986;BMP280;15453;53.692;10.168;2023-04-01T05:18:13;99399.97;;;13.19
27986;BMP280;15453;53.692;10.168;2023-04-01T05:20:38;99399.97;;;13.19
27986;BMP280;15453;53.692;10.168;2023-04-01T05:23:03;99395.16;;;13.11
27986;BMP280;15453;53.692;10.168;2023-04-01T05:25:29;99405.09;;;13.07
27986;BMP280;15453;53.692;10.168;2023-04-01T05:27:54;99399.66;;;13.02
27986;BMP280;15453;53.692;10.168;2023-04-01T05:30:20;99414.56;;;12.96
27986;BMP280;15453;53.692;10.168;2023-04-01T05:32:45;99413.81;;;12.90
27986;BMP280;15453;53.692;10.168;2023-04-01T05:35:11;99417.16;;;12.87
27986;BMP280;15453;53.692;10.168;2023-04-01T05:37:36;99415.31;;;12.83
27986;BMP280;15453;53.692;10.168;2023-04-01T05:40:03;99417.09;;;12.74
27986;BMP280;15453;53.692;10.168;2023-04-01T05:42:28;99419.06;;;12.68
27986;BMP280;15453;53.692;10.168;2023-04-01T05:44:54;99423.53;;;12.64
27986;BMP280;15453;53.692;10.168;2023-04-01T05:47:21;99434.81;;;12.63
27986;BMP280;15453;53.692;10.168;2023-04-01T05:49:46;99432.91;;;12.58
27986;BMP280;15453;53.692;10.168;2023-04-01T05:52:11;99439.03;;;12.55
27986;BMP280;15453;53.692;10.168;2023-04-01T05:54:36;99442.34;;;12.52
27986;BMP280;15453;53.692;10.168;2023-04-01T05:57:02;99445.44;;;12.46
27986;BMP280;15453;53.692;10.168;2023-04-01T05:59:28;99453.13;;;12.44
27986;BMP280;15453;53.692;10.168;2023-04-01T06:01:53;99453.47;;;12.42
27986;BMP280;15453;53.692;10.168;2023-04-01T06:04:18;99453.22;;;12.39
27986;BMP280;15453;53.692;10.168;2023-04-01T06:06:44;99453.50;;;12.37
27986;BMP280;15453;53.692;10.168;2023-04-01T06:09:17;99458.75;;;12.34
27986;BMP280;15453;53.692;10.168;2023-04-01T06:14:42;99469.81;;;12.29
27986;BMP280;15453;53.692;10.168;2023-04-01T06:20:25;99477.03;;;12.20
27986;BMP280;15453;53.692;10.168;2023-04-01T06:23:08;99481.19;;;12.17
27986;BMP280;15453;53.692;10.168;2023-04-01T06:25:57;99485.63;;;12.13
27986;BMP280;15453;53.692;10.168;2023-04-01T06:28:52;99485.91;;;12.12
27986;BMP280;15453;53.692;10.168;2023-04-01T06:31:51;99500.19;;;12.09
27986;BMP280;15453;53.692;10.168;2023-04-01T06:37:10;99501.88;;;12.05
27986;BMP280;15453;53.692;10.168;2023-04-01T06:39:40;99515.88;;;12.03
27986;BMP280;15453;53.692;10.168;2023-04-01T06:42:22;99520.28;;;12.04
27986;BMP280;15453;53.692;10.168;2023-04-01T06:48:10;99522.47;;;12.02
27986;BMP280;15453;53.692;10.168;2023-04-01T06:53:19;99533.72;;;12.01
27986;BMP280;15453;53.692;10.168;2023-04-01T06:55:57;99537.31;;;12.01
27986;BMP280;15453;53.692;10.168;2023-04-01T06:58:35;99544.75;;;11.96
27986;BMP280;15453;53.692;10.168;2023-04-01T07:01:06;99546.94;;;11.93
27986;BMP280;15453;53.692;10.168;2023-04-01T07:03:44;99548.06;;;11.93
27986;BMP280;15453;53.692;10.168;2023-04-01T07:06:19;99547.53;;;11.91
27986;BMP280;15453;53.692;10.168;2023-04-01T07:08:46;99542.34;;;11.89
27986;BMP280;15453;53.692;10.168;2023-04-01T07:11:28;99560.72;;;11.88
27986;BMP280;15453;53.692;10.168;2023-04-01T07:13:59;99560.47;;;11.85
27986;BMP280;15453;53.692;10.168;2023-04-01T07:16:36;99565.41;;;11.83
27986;BMP280;15453;53.692;10.168;2023-04-01T07:19:08;99567.34;;;11.82
27986;BMP280;15453;53.692;10.168;2023-04-01T07:21:50;99573.66;;;11.83
27986;BMP280;15453;53.692;10.168;2023-04-01T07:24:23;99580.00;;;11.78
27986;BMP280;15453;53.692;10.168;2023-04-01T07:26:54;99579.44;;;11.76
27986;BMP280;15453;53.692;10.168;2023-04-01T07:29:20;99575.06;;;11.75
27986;BMP280;15453;53.692;10.168;2023-04-01T07:32:05;99587.72;;;11.71
27986;BMP280;15453;53.692;10.168;2023-04-01T07:37:06;99601.47;;;11.66
27986;BMP280;15453;53.692;10.168;2023-04-01T07:42:47;99615.22;;;11.61
27986;BMP280;15453;53.692;10.168;2023-04-01T07:50:46;99629.44;;;11.58
27986;BMP280;15453;53.692;10.168;2023-04-01T07:53:33;99627.25;;;11.55
27986;BMP280;15453;53.692;10.168;2023-04-01T07:58:43;99637.16;;;11.51
27986;BMP280;15453;53.692;10.168;2023-04-01T08:01:20;99646.72;;;11.54
27986;BMP280;15453;53.692;10.168;2023-04-01T08:04:21;99648.69;;;11.53
27986;BMP280;15453;53.692;10.168;2023-04-01T08:06:58;99656.09;;;11.48
27986;BMP280;15453;53.692;10.168;2023-04-01T08:12:45;99663.78;;;11.51
27986;BMP280;15453;53.692;10.168;2023-04-01T08:15:19;99668.69;;;11.49
27986;BMP280;15453;53.692;10.168;2023-04-01T08:18:06;99664.88;;;11.50
27986;BMP280;15453;53.692;10.168;2023-04-01T08:20:46;99669.84;;;11.43
27986;BMP280;15453;53.692;10.168;2023-04-01T08:23:17;99672.28;;;11.44
27986;BMP280;15453;53.692;10.168;2023-04-01T08:25:56;99680.25;;;11.41
27986;BMP280;15453;53.692;10.168;2023-04-01T08:28:30;99679.47;;;11.35
27986;BMP280;15453;53.692;10.168;2023-04-01T08:31:03;99688.22;;;11.37
27986;BMP280;15453;53.692;10.168;2023-04-01T08:33:30;99691.50;;;11.39
27986;BMP280;15453;53.692;10.168;2023-04-01T08:36:05;99701.91;;;11.37
27986;BMP280;15453;53.692;10.168;2023-04-01T08:38:36;99700.00;;;11.38
27986;BMP280;15453;53.692;10.168;2023-04-01T08:47:13;99719.47;;;11.36
27986;BMP280;15453;53.692;10.168;2023-04-01T08:50:01;99716.97;;;11.40
27986;BMP280;15453;53.692;10.168;2023-04-01T08:55:46;99718.38;;;11.37
27986;BMP280;15453;53.692;10.168;2023-04-01T08:58:22;99725.22;;;11.35
27986;BMP280;15453;53.692;10.168;2023-04-01T09:00:56;99729.59;;;11.36
27986;BMP280;15453;53.692;10.168;2023-04-01T09:43:44;99784.13;;;11.47
27986;BMP280;15453;53.692;10.168;2023-04-01T09:46:28;99790.97;;;11.45
27986;BMP280;15453;53.692;10.168;2023-04-01T09:49:37;99793.44;;;11.46
27986;BMP280;15453;53.692;10.168;2023-04-01T09:52:30;99799.75;;;11.47
27986;BMP280;15453;53.692;10.168;2023-04-01T09:55:58;99798.13;;;11.46
27986;BMP280;15453;53.692;10.168;2023-04-01T10:06:21;99814.28;;;11.47
27986;BMP280;15453;53.692;10.168;2023-04-01T10:11:51;99816.75;;;11.49
27986;BMP280;15453;53.692;10.168;2023-04-01T10:17:19;99820.03;;;11.51
27986;BMP280;15453;53.692;10.168;2023-04-01T10:23:13;99833.19;;;11.59
27986;BMP280;15453;53.692;10.168;2023-04-01T10:34:01;99840.06;;;11.66
27986;BMP280;15453;53.692;10.168;2023-04-01T10:36:52;99849.38;;;11.65
27986;BMP280;15453;53.692;10.168;2023-04-01T10:39:50;99847.19;;;11.62
27986;BMP280;15453;53.692;10.168;2023-04-01T10:51:09;99853.75;;;11.56
27986;BMP280;15453;53.692;10.168;2023-04-01T10:56:39;99866.38;;;11.57
27986;BMP280;15453;53.692;10.168;2023-04-01T10:59:28;99871.88;;;11.52
27986;BMP280;15453;53.692;10.168;2023-04-01T11:08:08;99877.88;;;11.54
27986;BMP280;15453;53.692;10.168;2023-04-01T11:10:53;99878.97;;;11.53
27986;BMP280;15453;53.692;10.168;2023-04-01T11:16:21;99891.59;;;11.49
27986;BMP280;15453;53.692;10.168;2023-04-01T11:27:56;99917.38;;;11.38
27986;BMP280;15453;53.692;10.168;2023-04-01T11:33:58;99920.69;;;11.35
27986;BMP280;15453;53.692;10.168;2023-04-01T11:36:58;99934.91;;;11.32
27986;BMP280;15453;53.692;10.168;2023-04-01T11:39:17;99933.81;;;11.33
27986;BMP280;15453;53.692;10.168;2023-04-01T11:41:58;99934.91;;;11.32
27986;BMP280;15453;53.692;10.168;2023-04-01T11:44:29;99947.78;;;11.32
27986;BMP280;15453;53.692;10.168;2023-04-01T11:49:50;99942.03;;;11.33
27986;BMP280;15453;53.692;10.168;2023-04-01T11:55:27;99953.81;;;11.29
27986;BMP280;15453;53.692;10.168;2023-04-01T12:01:14;99965.59;;;11.19
27986;BMP280;15453;53.692;10.168;2023-04-01T12:09:41;99980.66;;;11.12
27986;BMP280;15453;53.692;10.168;2023-04-01T12:12:18;99985.28;;;11.01
27986;BMP280;15453;53.692;10.168;2023-04-01T12:17:30;99996.53;;;11.00
27986;BMP280;15453;53.692;10.168;2023-04-01T12:20:02;99989.94;;;10.96
27986;BMP280;15453;53.692;10.168;2023-04-01T12:22:46;100006.06;;;10.92
27986;BMP280;15453;53.692;10.168;2023-04-01T12:25:38;99998.38;;;10.89
27986;BMP280;15453;53.692;10.168;2023-04-01T12:28:40;100014.81;;;10.84
27986;BMP280;15453;53.692;10.168;2023-04-01T12:34:09;100018.13;;;10.91
27986;BMP280;15453;53.692;10.168;2023-04-01T12:39:57;100029.34;;;10.90
27986;BMP280;15453;53.692;10.168;2023-04-01T12:45:31;100034.81;;;10.85
27986;BMP280;15453;53.692;10.168;2023-04-01T12:48:10;100046.03;;;10.83
27986;BMP280;15453;53.692;10.168;2023-04-01T12:56:34;100052.03;;;10.80
27986;BMP280;15453;53.692;10.168;2023-04-01T13:02:00;100068.75;;;10.79
27986;BMP280;15453;53.692;10.168;2023-04-01T13:04:42;100073.69;;;10.77
27986;BMP280;15453;53.692;10.168;2023-04-01T13:07:33;100071.78;;;10.77
27986;BMP280;15453;53.692;10.168;2023-04-01T13:10:07;100078.59;;;10.75
27986;BMP280;15453;53.692;10.168;2023-04-01T13:15:41;100085.47;;;10.77
27986;BMP280;15453;53.692;10.168;2023-04-01T13:20:54;100086.53;;;10.76
27986;BMP280;15453;53.692;10.168;2023-04-01T13:29:16;100116.13;;;10.74
27986;BMP280;15453;53.692;10.168;2023-04-01T13:32:09;100120.75;;;10.74
27986;BMP280;15453;53.692;10.168;2023-04-01T13:34:39;100118.28;;;10.72
27986;BMP280;15453;53.692;10.168;2023-04-01T13:40:45;100121.31;;;10.71
27986;BMP280;15453;53.692;10.168;2023-04-01T13:43:12;100127.91;;;10.75
27986;BMP280;15453;53.692;10.168;2023-04-01T13:48:32;100126.50;;;10.72
27986;BMP280;15453;53.692;10.168;2023-04-01T13:59:32;100152.81;;;10.73
27986;BMP280;15453;53.692;10.168;2023-04-01T14:04:53;100160.47;;;10.76
27986;BMP280;15453;53.692;10.168;2023-04-01T14:10:07;100170.63;;;10.76
27986;BMP280;15453;53.692;10.168;2023-04-01T14:12:44;100184.31;;;10.76
27986;BMP280;15453;53.692;10.168;2023-04-01T14:20:53;100189.78;;;10.71
27986;BMP280;15453;53.692;10.168;2023-04-01T14:26:09;100194.94;;;10.67
27986;BMP280;15453;53.692;10.168;2023-04-01T14:37:10;100204.25;;;10.66
27986;BMP280;15453;53.692;10.168;2023-04-01T14:42:55;100210.81;;;10.65
27986;BMP280;15453;53.692;10.168;2023-04-01T14:50:49;100230.75;;;10.61
27986;BMP280;15453;53.692;10.168;2023-04-01T14:55:53;100240.06;;;10.60
27986;BMP280;15453;53.692;10.168;2023-04-01T14:58:20;100242.53;;;10.61
27986;BMP280;15453;53.692;10.168;2023-04-01T15:01:10;100248.03;;;10.61
27986;BMP280;15453;53.692;10.168;2023-04-01T15:03:59;100260.31;;;10.59
27986;BMP280;15453;53.692;10.168;2023-04-01T15:14:46;100276.34;;;10.45
27986;BMP280;15453;53.692;10.168;2023-04-01T15:17:57;100276.34;;;10.45
27986;BMP280;15453;53.692;10.168;2023-04-01T15:26:42;100298.41;;;10.34
27986;BMP280;15453;53.692;10.168;2023-04-01T15:32:17;100302.41;;;10.26
27986;BMP280;15453;53.692;10.168;2023-04-01T15:34:52;100311.72;;;10.25
27986;BMP280;15453;53.692;10.168;2023-04-01T15:37:48;100318.84;;;10.26
27986;BMP280;15453;53.692;10.168;2023-04-01T15:40:23;100316.38;;;10.25
27986;BMP280;15453;53.692;10.168;2023-04-01T15:48:24;100320.44;;;10.22
27986;BMP280;15453;53.692;10.168;2023-04-01T15:51:02;100338.19;;;10.20
27986;BMP280;15453;53.692;10.168;2023-04-01T15:53:49;100338.19;;;10.20
27986;BMP280;15453;53.692;10.168;2023-04-01T16:02:01;100347.25;;;10.20
27986;BMP280;15453;53.692;10.168;2023-04-01T16:07:30;100366.44;;;10.25
27986;BMP280;15453;53.692;10.168;2023-04-01T16:10:32;100366.44;;;10.25
27986;BMP280;15453;53.692;10.168;2023-04-01T16:13:22;100374.03;;;10.18
27986;BMP280;15453;53.692;10.168;2023-04-01T16:21:52;100372.31;;;10.12
27986;BMP280;15453;53.692;10.168;2023-04-01T16:54:57;100448.53;;;9.87
27986;BMP280;15453;53.692;10.168;2023-04-01T17:00:27;100473.16;;;9.87
27986;BMP280;15453;53.692;10.168;2023-04-01T17:03:03;100473.16;;;9.87
27986;BMP280;15453;53.692;10.168;2023-04-01T17:05:40;100476.72;;;9.88
27986;BMP280;15453;53.692;10.168;2023-04-01T17:08:51;100497.78;;;9.87
27986;BMP280;15453;53.692;10.168;2023-04-01T17:11:26;100497.78;;;9.87
27986;BMP280;15453;53.692;10.168;2023-04-01T17:17:10;100493.56;;;9.80
27986;BMP280;15453;53.692;10.168;2023-04-01T17:19:55;100516.78;;;9.77
27986;BMP280;15453;53.692;10.168;2023-04-01T17:25:41;100534.41;;;9.70
27986;BMP280;15453;53.692;10.168;2023-04-01T17:33:36;100543.69;;;9.69
27986;BMP280;15453;53.692;10.168;2023-04-01T17:36:20;100543.69;;;9.69
27986;BMP280;15453;53.692;10.168;2023-04-01T17:49:42;100578.72;;;9.55
27986;BMP280;15453;53.692;10.168;2023-04-01T18:00:49;100599.19;;;9.53
27986;BMP280;15453;53.692;10.168;2023-04-01T18:06:19;100605.13;;;9.50
27986;BMP280;15453;53.692;10.168;2023-04-01T18:09:03;100620.97;;;9.48
27986;BMP280;15453;53.692;10.168;2023-04-01T18:11:51;100626.66;;;9.46
27986;BMP280;15453;53.692;10.168;2023-04-01T18:14:41;100626.66;;;9.46
27986;BMP280;15453;53.692;10.168;2023-04-01T18:17:37;100643.69;;;9.37
27986;BMP280;15453;53.692;10.168;2023-04-01T18:20:26;100657.59;;;9.35
27986;BMP280;15453;53.692;10.168;2023-04-01T18:22:58;100657.59;;;9.35
27986;BMP280;15453;53.692;10.168;2023-04-01T18:25:40;100672.00;;;9.31
27986;BMP280;15453;53.692;10.168;2023-04-01T18:28:36;100672.00;;;9.31
27986;BMP280;15453;53.692;10.168;2023-04-01T18:38:54;100699.84;;;9.16
27986;BMP280;15453;53.692;10.168;2023-04-01T18:44:57;100718.38;;;9.14
27986;BMP280;15453;53.692;10.168;2023-04-01T18:50:21;100721.00;;;9.09
27986;BMP280;15453;53.692;10.168;2023-04-01T18:52:52;100738.13;;;9.05
27986;BMP280;15453;53.692;10.168;2023-04-01T18:55:23;100738.13;;;9.05
27986;BMP280;15453;53.692;10.168;2023-04-01T18:57:58;100738.59;;;9.02
27986;BMP280;15453;53.692;10.168;2023-04-01T19:00:38;100753.56;;;8.99
27986;BMP280;15453;53.692;10.168;2023-04-01T19:03:15;100753.56;;;8.99
27986;BMP280;15453;53.692;10.168;2023-04-01T19:05:46;100754.03;;;8.96
27986;BMP280;15453;53.692;10.168;2023-04-01T19:10:57;100760.22;;;8.92
27986;BMP280;15453;53.692;10.168;2023-04-01T19:18:52;100788.13;;;8.82
27986;BMP280;15453;53.692;10.168;2023-04-01T19:21:35;100789.44;;;8.80
27986;BMP280;15453;53.692;10.168;2023-04-01T19:26:58;100797.84;;;8.78
27986;BMP280;15453;53.692;10.168;2023-04-01T19:30:02;100797.84;;;8.78
27986;BMP280;15453;53.692;10.168;2023-04-01T19:35:17;100805.31;;;8.83
27986;BMP280;15453;53.692;10.168;2023-04-01T19:37:51;100798.81;;;8.84
27986;BMP280;15453;53.692;10.168;2023-04-01T19:51:07;100840.13;;;8.76
27986;BMP280;15453;53.692;10.168;2023-04-01T19:53:42;100840.13;;;8.76
27986;BMP280;15453;53.692;10.168;2023-04-01T19:56:18;100830.97;;;8.70
27986;BMP280;15453;53.692;10.168;2023-04-01T19:59:04;100844.72;;;8.64
27986;BMP280;15453;53.692;10.168;2023-04-01T20:01:49;100845.19;;;8.61
27986;BMP280;15453;53.692;10.168;2023-04-01T20:04:23;100871.50;;;8.55
27986;BMP280;15453;53.692;10.168;2023-04-01T20:10:04;100874.34;;;8.49
27986;BMP280;15453;53.692;10.168;2023-04-01T20:13:00;100874.66;;;8.41
27986;BMP280;15453;53.692;10.168;2023-04-01T20:15:40;100881.53;;;8.32
27986;BMP280;15453;53.692;10.168;2023-04-01T20:18:18;100890.66;;;8.26
27986;BMP280;15453;53.692;10.168;2023-04-01T20:20:54;100891.94;;;8.23
27986;BMP280;15453;53.692;10.168;2023-04-01T20:26:20;100914.13;;;8.09
27986;BMP280;15453;53.692;10.168;2023-04-01T20:31:57;100921.31;;;8.03
27986;BMP280;15453;53.692;10.168;2023-04-01T20:34:36;100932.69;;;8.00
27986;BMP280;15453;53.692;10.168;2023-04-01T20:37:20;100932.69;;;8.00
27986;BMP280;15453;53.692;10.168;2023-04-01T20:48:34;100955.44;;;7.94
27986;BMP280;15453;53.692;10.168;2023-04-01T20:51:14;100967.38;;;7.93
27986;BMP280;15453;53.692;10.168;2023-04-01T21:08:14;100976.16;;;7.77
27986;BMP280;15453;53.692;10.168;2023-04-01T21:21:29;101016.13;;;7.65
27986;BMP280;15453;53.692;10.168;2023-04-01T21:43:09;101049.44;;;7.43
27986;BMP280;15453;53.692;10.168;2023-04-01T21:45:56;101052.00;;;7.38
27986;BMP280;15453;53.692;10.168;2023-04-01T22:00:14;101069.59;;;7.35
27986;BMP280;15453;53.692;10.168;2023-04-01T22:08:46;101089.38;;;7.24
27986;BMP280;15453;53.692;10.168;2023-04-01T22:11:38;101089.38;;;7.24
27986;BMP280;15453;53.692;10.168;2023-04-01T22:14:13;101086.91;;;7.16
27986;BMP280;15453;53.692;10.168;2023-04-01T22:16:59;101101.97;;;7.19